createdAt,value
2022-12-11T00:06:16.685Z,-0.4
2022-12-11T00:08:18.342Z,-0.4
2022-12-11T00:12:24.159Z,-0.4
2022-12-11T00:14:25.737Z,-0.4
2022-12-11T00:16:30.104Z,-0.3
2022-12-11T00:20:33.223Z,-0.3
2022-12-11T00:22:37.504Z,-0.3
2022-12-11T00:24:39.091Z,-0.3
2022-12-11T00:26:40.700Z,-0.4
2022-12-11T00:28:44.962Z,-0.3
2022-12-11T00:30:46.564Z,-0.3
2022-12-11T00:32:48.149Z,-0.3
2022-12-11T00:34:52.421Z,-0.4
2022-12-11T00:36:54.045Z,-0.2
2022-12-11T00:38:55.622Z,-0.2
2022-12-11T00:40:59.892Z,-0.2
2022-12-11T00:43:01.503Z,-0.3
2022-12-11T00:45:03.085Z,-0.3
2022-12-11T00:47:07.376Z,-0.2
2022-12-11T00:49:08.989Z,-0.2
2022-12-11T00:51:10.554Z,-0.2
2022-12-11T01:00:09.461Z,-0.3
2022-12-11T01:06:16.954Z,-0.3
2022-12-11T01:17:34.778Z,-0.3
2022-12-11T01:19:36.353Z,-0.3
2022-12-11T01:21:40.596Z,-0.3
2022-12-11T01:23:42.198Z,-0.3
2022-12-11T01:25:43.802Z,-0.2
2022-12-11T01:31:51.259Z,-0.2
2022-12-11T01:33:55.533Z,-0.3
2022-12-11T01:35:57.151Z,-0.2
2022-12-11T01:37:58.757Z,-0.3
2022-12-11T01:40:03.021Z,-0.2
2022-12-11T01:42:04.630Z,-0.2
2022-12-11T01:44:06.223Z,-0.2
2022-12-11T01:46:10.598Z,-0.1
2022-12-11T01:48:12.117Z,-0.2
2022-12-11T01:50:13.697Z,-0.2
2022-12-11T01:55:21.451Z,0
2022-12-11T01:57:23.078Z,-0.2
2022-12-11T01:59:24.644Z,-0.2
2022-12-11T02:01:29.068Z,-0.1
2022-12-11T02:03:30.525Z,-0.2
2022-12-11T02:05:32.117Z,-0.1
2022-12-11T02:07:36.428Z,-0.1
2022-12-11T02:09:38.009Z,0
2022-12-11T02:11:39.613Z,-0.1
2022-12-11T02:13:43.922Z,-0.1
2022-12-11T02:19:51.410Z,-0.1
2022-12-11T02:23:54.607Z,0
2022-12-11T02:25:58.892Z,0
2022-12-11T02:28:00.488Z,-0.1
2022-12-11T02:30:02.156Z,0
2022-12-11T02:32:06.382Z,-0.1
2022-12-11T02:34:07.992Z,-0.1
2022-12-11T02:36:09.571Z,-0.1
2022-12-11T02:38:13.930Z,-0.1
2022-12-11T02:40:15.467Z,0.1
2022-12-11T02:42:17.104Z,0
2022-12-11T02:44:21.390Z,0
2022-12-11T02:46:22.998Z,0
2022-12-11T02:48:24.614Z,0.1
2022-12-11T02:50:28.876Z,-0.1
2022-12-11T02:52:30.518Z,0
2022-12-11T02:54:32.104Z,0.1
2022-12-11T02:56:36.412Z,0.1
2022-12-11T02:58:38.010Z,0
2022-12-11T03:00:39.621Z,0.1
2022-12-11T03:02:43.931Z,0.1
2022-12-11T03:04:45.512Z,-0.1
2022-12-11T03:06:47.086Z,0
2022-12-11T03:21:20.130Z,0
2022-12-11T03:23:21.738Z,0.1
2022-12-11T03:25:23.347Z,0.1
2022-12-11T03:27:27.629Z,0
2022-12-11T03:29:29.253Z,0
2022-12-11T03:33:35.148Z,0.1
2022-12-11T03:35:36.741Z,0.1
2022-12-11T03:37:38.328Z,0.1
2022-12-11T03:39:42.631Z,0.2
2022-12-11T03:41:44.237Z,0
2022-12-11T03:43:45.857Z,0.1
2022-12-11T03:45:50.186Z,0.1
2022-12-11T03:47:51.755Z,0.1
2022-12-11T03:49:53.381Z,0
2022-12-11T03:51:57.827Z,0.2
2022-12-11T03:53:59.290Z,0.1
2022-12-11T03:56:00.897Z,0.2
2022-12-11T03:58:05.154Z,0.1
2022-12-11T04:00:06.780Z,0.2
2022-12-11T04:02:08.426Z,0.1
2022-12-11T04:04:12.717Z,0.1
2022-12-11T04:06:14.312Z,0.2
2022-12-11T04:08:15.955Z,0.1
2022-12-11T04:10:20.211Z,0.2
2022-12-11T04:12:21.840Z,0.2
2022-12-11T04:14:23.454Z,0.1
2022-12-11T04:16:27.749Z,0.2
2022-12-11T04:18:29.360Z,0.2
2022-12-11T04:20:30.968Z,0.2
2022-12-11T04:22:35.272Z,0.1
2022-12-11T04:24:36.883Z,0.3
2022-12-11T04:26:38.467Z,0.1
2022-12-11T04:28:42.771Z,0.1
2022-12-11T04:30:44.455Z,0.1
2022-12-11T04:32:46.014Z,0.2
2022-12-11T04:34:50.323Z,0.1
2022-12-11T04:36:51.921Z,0.3
2022-12-11T04:38:53.527Z,0.2
2022-12-11T04:40:57.837Z,0.3
2022-12-11T04:45:01.033Z,0.3
2022-12-11T04:52:12.179Z,0.2
2022-12-11T04:54:13.789Z,0.3
2022-12-11T04:56:18.089Z,0.3
2022-12-11T04:58:19.716Z,0.2
2022-12-11T05:00:21.322Z,0.2
2022-12-11T05:09:34.690Z,0.2
2022-12-11T05:11:38.995Z,0.2
2022-12-11T05:17:46.482Z,0.2
2022-12-11T05:23:54.020Z,0.4
2022-12-11T05:25:55.649Z,0.3
2022-12-11T05:27:57.255Z,0.3
2022-12-11T05:30:01.574Z,0.3
2022-12-11T05:32:03.221Z,0.3
2022-12-11T05:34:04.803Z,0.4
2022-12-11T05:36:09.097Z,0.4
2022-12-11T05:38:10.765Z,0.3
2022-12-11T05:40:12.341Z,0.3
2022-12-11T05:49:11.347Z,0.4
2022-12-11T05:51:12.947Z,0.3
2022-12-11T05:53:14.559Z,0.3
2022-12-11T05:55:18.847Z,0.2
2022-12-11T05:57:20.457Z,0.3
2022-12-11T05:59:22.089Z,0.3
2022-12-11T06:01:26.370Z,0.3
2022-12-11T06:03:27.968Z,0.3
2022-12-11T06:05:29.572Z,0.3
2022-12-11T06:07:33.885Z,0.3
2022-12-11T06:09:35.501Z,0.4
2022-12-11T06:11:37.086Z,0.3
2022-12-11T06:13:41.393Z,0.3
2022-12-11T06:15:43.015Z,0.3
2022-12-11T06:17:44.651Z,0.4
2022-12-11T06:19:48.961Z,0.4
2022-12-11T06:21:50.580Z,0.3
2022-12-11T06:23:52.173Z,0.4
2022-12-11T06:25:56.492Z,0.4
2022-12-11T06:27:58.109Z,0.4
2022-12-11T06:29:59.702Z,0.4
2022-12-11T06:37:12.063Z,0.5
2022-12-11T06:39:13.660Z,0.5
2022-12-11T06:41:17.974Z,0.4
2022-12-11T06:43:19.588Z,0.5
2022-12-11T06:45:21.209Z,0.3
2022-12-11T06:47:25.521Z,0.5
2022-12-11T06:49:27.169Z,0.3
2022-12-11T06:51:28.766Z,0.4
2022-12-11T06:53:33.136Z,0.4
2022-12-11T06:55:34.728Z,0.4
2022-12-11T06:57:36.341Z,0.5
2022-12-11T06:59:40.661Z,0.3
2022-12-11T07:01:42.259Z,0.3
2022-12-11T07:03:43.903Z,0.3
2022-12-11T07:05:48.195Z,0.4
2022-12-11T07:07:49.861Z,0.4
2022-12-11T07:09:51.531Z,0.5
2022-12-11T07:11:55.739Z,0.5
2022-12-11T07:13:57.370Z,0.5
2022-12-11T07:15:59.035Z,0.5
2022-12-11T07:18:03.324Z,0.5
2022-12-11T07:20:04.942Z,0.5
2022-12-11T07:22:06.556Z,0.4
2022-12-11T07:24:10.860Z,0.5
2022-12-11T07:28:16.809Z,0.5
2022-12-11T07:30:18.395Z,0.5
2022-12-11T07:32:20.151Z,0.4
2022-12-11T07:34:21.637Z,0.5
2022-12-11T07:36:25.921Z,0.4
2022-12-11T07:38:27.553Z,0.4
2022-12-11T07:42:33.509Z,0.4
2022-12-11T07:44:35.117Z,0.5
2022-12-11T07:46:36.728Z,0.4
2022-12-11T07:48:41.030Z,0.4
2022-12-11T07:52:44.254Z,0.5
2022-12-11T07:56:53.676Z,0.5
2022-12-11T08:02:57.713Z,0.5
2022-12-11T08:04:59.332Z,0.5
2022-12-11T08:07:03.623Z,0.4
2022-12-11T08:11:06.869Z,0.5
2022-12-11T08:13:11.168Z,0.5
2022-12-11T08:15:13.171Z,0.4
2022-12-11T08:17:14.422Z,0.5
2022-12-11T08:19:18.714Z,0.4
2022-12-11T08:21:20.273Z,0.5
2022-12-11T08:23:21.913Z,0.4
2022-12-11T08:27:27.839Z,0.4
2022-12-11T08:29:29.457Z,0.3
2022-12-11T08:37:41.293Z,0.4
2022-12-11T08:39:42.917Z,0.4
2022-12-11T08:43:48.844Z,0.4
2022-12-11T08:45:50.497Z,0.4
2022-12-11T08:51:58.008Z,0.4
2022-12-11T08:53:59.644Z,0.4
2022-12-11T09:05:12.273Z,0.4
2022-12-11T09:07:13.466Z,0.4
2022-12-11T09:13:21.039Z,0.4
2022-12-11T09:17:26.908Z,0.4
2022-12-11T09:19:32.219Z,0.4
2022-12-11T09:21:30.176Z,0.3
2022-12-11T09:27:37.696Z,0.3
2022-12-11T09:29:42.016Z,0.3
2022-12-11T09:31:43.606Z,0.3
2022-12-11T09:35:49.528Z,0.3
2022-12-11T09:39:52.792Z,0.3
2022-12-11T09:41:57.093Z,0.2
2022-12-11T09:43:58.698Z,0.2
2022-12-11T09:46:00.351Z,0.3
2022-12-11T09:48:04.602Z,0.3
2022-12-11T09:50:06.246Z,0.3
2022-12-11T09:54:12.137Z,0.3
2022-12-11T09:56:13.774Z,0.3
2022-12-11T10:00:19.972Z,0.4
2022-12-11T10:02:21.374Z,0.3
2022-12-11T10:06:27.230Z,0.3
2022-12-11T10:08:28.947Z,0.3
2022-12-11T10:10:30.488Z,0.3
2022-12-11T10:18:45.173Z,0.3
2022-12-11T10:20:46.775Z,0.4
2022-12-11T10:30:01.860Z,0.4
2022-12-11T10:32:06.135Z,0.5
2022-12-11T10:34:07.783Z,0.5
2022-12-11T10:36:09.380Z,0.5
2022-12-11T10:44:21.230Z,0.6
2022-12-11T10:50:28.828Z,0.8
2022-12-11T10:52:30.466Z,0.8
2022-12-11T11:00:39.654Z,0.8
2022-12-11T11:05:49.117Z,0.8
2022-12-11T11:07:44.818Z,0.9
2022-12-11T11:09:46.345Z,1
2022-12-11T11:11:50.631Z,0.9
2022-12-11T11:15:53.998Z,1
2022-12-11T11:17:58.221Z,0.9
2022-12-11T11:19:59.838Z,0.9
2022-12-11T11:22:01.475Z,1
2022-12-11T11:24:05.815Z,1.1
2022-12-11T11:26:07.436Z,1.1
2022-12-11T11:28:09.076Z,1.1
2022-12-11T11:30:13.452Z,1.1
2022-12-11T11:32:15.032Z,1.1
2022-12-11T11:34:16.686Z,1.1
2022-12-11T11:36:20.999Z,1
2022-12-11T11:38:22.635Z,1
2022-12-11T11:40:24.277Z,1.1
2022-12-11T11:47:36.722Z,1.1
2022-12-11T11:49:38.342Z,1.1
2022-12-11T12:01:19.351Z,1.1
2022-12-11T12:03:21.002Z,1.2
2022-12-11T12:05:22.638Z,1.3
2022-12-11T12:12:32.425Z,1.3
2022-12-11T12:14:51.626Z,1.3
2022-12-11T12:16:52.863Z,1.2
2022-12-11T12:18:36.120Z,1.2
2022-12-11T12:20:37.792Z,1.2
2022-12-11T12:31:38.653Z,1.3
2022-12-11T12:35:44.576Z,1.3
2022-12-11T12:37:46.232Z,1.3
2022-12-11T12:39:47.848Z,1.3
2022-12-11T12:41:52.195Z,1.3
2022-12-11T12:43:53.945Z,1.2
2022-12-11T12:45:55.541Z,1.2
2022-12-11T12:47:59.918Z,1.2
2022-12-11T12:50:01.475Z,1.2
2022-12-11T12:52:03.116Z,1.2
2022-12-11T13:01:02.373Z,1.2
2022-12-11T13:03:03.940Z,1.3
2022-12-11T13:05:05.624Z,1.2
2022-12-11T13:07:09.943Z,1.2
2022-12-11T13:13:17.580Z,1.2
2022-12-11T13:15:19.240Z,1.1
2022-12-11T13:23:28.500Z,1.1
2022-12-11T13:31:40.576Z,1
2022-12-11T13:33:42.156Z,1
2022-12-11T13:35:43.777Z,1
2022-12-11T13:37:48.113Z,1.1
2022-12-11T13:41:51.410Z,1.1
2022-12-11T13:43:55.760Z,1.1
2022-12-11T13:45:57.442Z,1.1
2022-12-11T13:47:59.069Z,1.2
2022-12-11T13:50:03.431Z,1.1
2022-12-11T13:52:05.051Z,1.1
2022-12-11T13:54:06.701Z,1.1
2022-12-11T13:56:11.027Z,1
2022-12-11T14:02:18.742Z,1
2022-12-11T14:04:20.319Z,1
2022-12-11T14:06:21.997Z,1
2022-12-11T14:10:27.959Z,1
2022-12-11T14:12:29.600Z,1
2022-12-11T14:14:33.934Z,1
2022-12-11T14:16:35.671Z,1
2022-12-11T14:18:37.238Z,1
2022-12-11T14:20:41.568Z,1
2022-12-11T14:22:43.205Z,0.9
2022-12-11T14:24:44.853Z,0.9
2022-12-11T14:26:49.171Z,0.9
2022-12-11T14:28:50.880Z,0.9
2022-12-11T14:30:52.496Z,0.9
2022-12-11T14:39:51.625Z,0.9
2022-12-11T14:41:53.263Z,0.8
2022-12-11T14:43:54.875Z,0.8
2022-12-11T14:45:59.257Z,0.8
2022-12-11T14:48:00.853Z,0.7
2022-12-11T14:50:02.430Z,0.8
2022-12-11T14:52:06.736Z,0.7
2022-12-11T14:54:08.375Z,0.8
2022-12-11T14:56:10.034Z,0.7
2022-12-11T14:58:14.316Z,0.7
2022-12-11T15:00:15.947Z,0.7
2022-12-11T15:02:17.716Z,0.7
2022-12-11T15:04:21.898Z,0.7
2022-12-11T15:06:23.560Z,0.7
2022-12-11T15:08:25.262Z,0.7
2022-12-11T15:10:29.496Z,0.7
2022-12-11T15:12:31.136Z,0.7
2022-12-11T15:14:32.744Z,0.6
2022-12-11T15:16:37.093Z,0.7
2022-12-11T15:20:40.319Z,0.7
2022-12-11T15:22:44.653Z,0.6
2022-12-11T15:24:46.288Z,0.6
2022-12-11T15:26:47.940Z,0.6
2022-12-11T15:28:52.205Z,0.6
2022-12-11T15:30:53.864Z,0.6
2022-12-11T15:32:55.476Z,0.6
2022-12-11T15:34:59.831Z,0.6
2022-12-11T15:37:01.435Z,0.6
2022-12-11T15:39:03.057Z,0.6
2022-12-11T15:43:09.000Z,0.6
2022-12-11T15:45:10.847Z,0.6
2022-12-11T15:47:14.916Z,0.6
2022-12-11T15:49:16.537Z,0.6
2022-12-11T15:53:22.496Z,0.6
2022-12-11T15:55:24.121Z,0.6
2022-12-11T15:57:25.741Z,0.6
2022-12-11T15:59:30.052Z,0.6
2022-12-11T16:01:31.724Z,0.5
2022-12-11T16:03:33.348Z,0.5
2022-12-11T16:05:37.666Z,0.5
2022-12-11T16:07:39.317Z,0.5
2022-12-11T16:09:40.925Z,0.5
2022-12-11T16:11:45.245Z,0.6
2022-12-11T16:13:46.905Z,0.5
2022-12-11T16:15:48.641Z,0.5
2022-12-11T16:17:52.863Z,0.6
2022-12-11T16:21:56.155Z,0.5
2022-12-11T16:27:03.457Z,0.5
2022-12-11T16:29:05.124Z,0.5
2022-12-11T16:31:06.851Z,0.5
2022-12-11T16:33:13.175Z,0.5
2022-12-11T16:35:13.123Z,0.5
2022-12-11T16:37:14.376Z,0.5
2022-12-11T16:39:18.679Z,0.5
2022-12-11T16:41:20.353Z,0.5
2022-12-11T16:43:22.002Z,0.5
2022-12-11T16:45:26.381Z,0.5
2022-12-11T16:47:27.932Z,0.5
2022-12-11T16:49:29.575Z,0.5
2022-12-11T16:51:33.901Z,0.5
2022-12-11T16:53:35.530Z,0.5
2022-12-11T16:55:37.163Z,0.5
2022-12-11T17:04:36.265Z,0.5
2022-12-11T17:08:39.571Z,0.5
2022-12-11T17:10:43.854Z,0.5
2022-12-11T17:12:45.518Z,0.4
2022-12-11T17:14:47.112Z,0.4
2022-12-11T17:16:51.445Z,0.4
2022-12-11T17:18:53.093Z,0.5
2022-12-11T17:25:00.653Z,0.5
2022-12-11T17:27:02.264Z,0.4
2022-12-11T17:33:09.864Z,0.5
2022-12-11T17:40:22.295Z,0.4
2022-12-11T17:42:23.894Z,0.4
2022-12-11T17:46:29.922Z,0.4
2022-12-11T17:48:31.465Z,0.4
2022-12-11T17:50:35.773Z,0.4
2022-12-11T17:52:44.021Z,0.5
2022-12-11T17:54:40.656Z,0.4
2022-12-11T18:09:47.257Z,0.4
2022-12-11T18:11:48.861Z,0.3
2022-12-11T18:13:50.507Z,0.3
2022-12-11T18:15:54.844Z,0.3
2022-12-11T18:19:58.044Z,0.3
2022-12-11T18:22:02.350Z,0.3
2022-12-11T18:24:03.970Z,0.3
2022-12-11T18:28:09.850Z,0.3
2022-12-11T18:30:11.476Z,0.3
2022-12-11T18:32:13.079Z,0.4
2022-12-11T18:34:17.400Z,0.3
2022-12-11T18:36:19.014Z,0.3
2022-12-11T18:38:20.594Z,0.3
2022-12-11T18:40:24.902Z,0.2
2022-12-11T18:42:33.407Z,0.2
2022-12-11T18:44:28.160Z,0.2
2022-12-11T19:01:36.371Z,0.2
2022-12-11T19:03:37.946Z,0.2
2022-12-11T19:05:42.223Z,0.2
2022-12-11T19:07:43.845Z,0.2
2022-12-11T19:09:48.294Z,0.2
2022-12-11T19:11:49.744Z,0.2
2022-12-11T19:13:51.383Z,0.2
2022-12-11T19:15:53.075Z,0.1
2022-12-11T19:21:09.004Z,0.2
2022-12-11T19:23:07.900Z,0.2
2022-12-11T19:25:09.871Z,0.1
2022-12-11T19:29:15.429Z,0.1
2022-12-11T19:31:17.115Z,0.1
2022-12-11T19:33:21.353Z,0.2
2022-12-11T19:35:22.971Z,0.1
2022-12-11T19:37:24.609Z,0.2
2022-12-11T19:39:28.895Z,0.2
2022-12-11T19:43:32.153Z,0.1
2022-12-11T19:47:38.027Z,0.2
2022-12-11T19:49:39.646Z,0.1
2022-12-11T19:53:45.606Z,0.2
2022-12-11T19:55:47.201Z,0.2
2022-12-11T20:06:47.761Z,0.2
2022-12-11T20:13:55.671Z,0.1
2022-12-11T20:17:58.875Z,0.1
2022-12-11T20:20:03.240Z,0.1
2022-12-11T20:24:06.415Z,0.1
2022-12-11T20:26:10.722Z,0.2
2022-12-11T20:28:12.347Z,0.1
2022-12-11T20:30:13.944Z,0.1
2022-12-11T20:32:18.248Z,0.1
2022-12-11T20:34:19.866Z,0.1
2022-12-11T20:36:21.460Z,0.1
2022-12-11T20:38:28.775Z,0.1
2022-12-11T20:40:27.402Z,0.1
2022-12-11T20:42:28.978Z,0.1
2022-12-11T20:44:33.284Z,0.1
2022-12-11T20:46:34.888Z,0.2
2022-12-11T20:48:36.504Z,0.1
2022-12-11T20:50:40.783Z,0.2
2022-12-11T20:52:42.370Z,0.1
2022-12-11T20:54:43.988Z,0.2
2022-12-11T20:56:48.284Z,0.2
2022-12-11T20:58:49.900Z,0.1
2022-12-11T21:00:51.564Z,0.1
2022-12-11T21:14:48.386Z,0.1
2022-12-11T21:16:50.033Z,0.1
2022-12-11T21:18:54.249Z,0.1
2022-12-11T21:27:03.363Z,0.1
2022-12-11T21:29:04.932Z,0.1
2022-12-11T21:31:09.225Z,0.1
2022-12-11T21:33:10.826Z,0.1
2022-12-11T21:35:12.831Z,0.1
2022-12-11T21:37:16.737Z,0.1
2022-12-11T21:39:18.340Z,0.1
2022-12-11T21:41:19.942Z,0.1
2022-12-11T21:53:08.998Z,0.1
2022-12-11T21:55:11.089Z,0.1
2022-12-11T21:57:12.179Z,0.1
2022-12-11T22:12:18.606Z,0.2
2022-12-11T22:14:20.211Z,0.1
2022-12-11T22:16:21.868Z,0.1
2022-12-11T22:20:27.695Z,0.1
2022-12-11T22:22:29.309Z,0.1
2022-12-11T22:24:33.591Z,0.1
2022-12-11T22:26:35.180Z,0.1
2022-12-11T22:28:36.796Z,0.1
2022-12-11T22:30:41.149Z,0
2022-12-11T22:36:48.550Z,0
2022-12-11T22:38:50.161Z,0
2022-12-11T22:40:51.766Z,0
2022-12-11T22:42:56.065Z,0.1
2022-12-11T22:44:57.664Z,0
2022-12-11T22:46:59.247Z,0.1
2022-12-11T22:49:03.546Z,0
2022-12-11T22:51:05.141Z,0.1
2022-12-11T22:53:06.742Z,0.1
2022-12-11T22:55:11.341Z,0.1
2022-12-11T22:57:12.621Z,0.1
2022-12-11T22:59:14.212Z,0.1
2022-12-11T23:01:18.507Z,0.1
2022-12-11T23:03:20.210Z,0
2022-12-11T23:05:21.706Z,0.1
2022-12-11T23:07:26.019Z,0
2022-12-11T23:09:27.570Z,0
2022-12-11T23:11:29.199Z,0
2022-12-11T23:13:33.487Z,0
2022-12-11T23:15:35.080Z,0.1
2022-12-11T23:17:36.686Z,0.1
2022-12-11T23:19:40.969Z,0.1
2022-12-11T23:21:42.606Z,0.1
2022-12-11T23:23:44.180Z,0.1
2022-12-11T23:25:48.463Z,0.1
2022-12-11T23:27:50.100Z,0
2022-12-11T23:29:51.705Z,0
2022-12-11T23:31:55.977Z,0.1
2022-12-11T23:33:57.575Z,0.1
2022-12-11T23:35:59.168Z,0.1
2022-12-11T23:38:03.520Z,0.1
2022-12-11T23:40:05.100Z,0.1
2022-12-11T23:48:14.205Z,0
2022-12-11T23:50:18.493Z,0.1
2022-12-11T23:52:20.088Z,0
2022-12-11T23:54:21.664Z,0
2022-12-11T23:58:27.583Z,0
